Time;durP1;ratioP1;P1;durP2;ratioP2;P2;SDS_P1;SDS_P2;PMS_P1;PMS_P2;Temp;Humidity;BMP_temperature;BMP_pressure;BME280_temperature;BME280_humidity;BME280_pressure;Samples;Min_cycle;Max_cycle;Signal;HPM_P1;HPM_P2
2021/08/24 00:00:57;;;;;;;;;10.00;8.75;;;;;20.21;59.56;102006.53;4999644;28;45340;-76
2021/08/24 00:03:23;;;;;;;;;11.50;9.75;;;;;20.16;59.58;102004.06;4999336;28;45456;-78
2021/08/24 00:05:49;;;;;;;;;8.00;7.50;;;;;20.15;59.61;102003.22;5001033;28;45317;-77
2021/08/24 00:08:16;;;;;;;;;11.50;6.75;;;;;20.18;59.83;102010.31;5002910;28;45343;-77
2021/08/24 00:10:48;;;;;;;;;7.25;6.25;;;;;20.11;59.52;101989.88;5001673;28;45474;-77
2021/08/24 00:13:15;;;;;;;;;9.50;7.75;;;;;20.17;59.82;101997.72;5002272;28;46257;-77
2021/08/24 00:15:47;;;;;;;;;8.00;7.25;;;;;20.14;59.86;101996.03;5002705;28;45320;-76
2021/08/24 00:18:13;;;;;;;;;9.75;8.00;;;;;20.13;60.04;101990.69;5002769;28;45474;-77
2021/08/24 00:20:41;;;;;;;;;11.50;9.25;;;;;20.05;60.26;101980.25;5002629;28;45449;-76
2021/08/24 00:23:10;;;;;;;;;12.00;8.00;;;;;20.03;60.16;101976.75;5001275;28;46952;-78
2021/08/24 00:25:37;;;;;;;;;11.75;11.75;;;;;19.97;60.25;101975.22;5002499;28;45449;-76
2021/08/24 00:28:03;;;;;;;;;10.50;8.75;;;;;19.89;60.41;101960.34;5002298;28;45415;-77
2021/08/24 00:30:28;;;;;;;;;7.75;7.75;;;;;19.97;60.42;101969.81;5001273;28;45562;-76
2021/08/24 00:32:54;;;;;;;;;10.25;9.75;;;;;19.96;60.64;101969.88;5002089;28;45931;-76
2021/08/24 00:35:19;;;;;;;;;14.25;13.25;;;;;19.97;60.42;101971.66;5002326;28;45362;-77
2021/08/24 00:37:45;;;;;;;;;9.25;9.25;;;;;19.97;60.69;101964.38;5001168;28;45375;-77
2021/08/24 00:40:11;;;;;;;;;7.75;7.75;;;;;20.06;60.59;101984.69;4997977;28;45529;-77
2021/08/24 00:42:38;;;;;;;;;9.75;9.25;;;;;20.02;60.68;101968.72;4999523;28;45491;-77
2021/08/24 00:45:06;;;;;;;;;8.25;8.25;;;;;19.98;60.77;101974.28;5001033;28;45186;-76
2021/08/24 00:47:33;;;;;;;;;8.00;8.00;;;;;20.10;60.45;101991.72;5002121;28;45458;-77
2021/08/24 00:50:13;;;;;;;;;8.25;8.00;;;;;20.01;60.54;101972.38;5002417;28;45415;-77
2021/08/24 00:52:38;;;;;;;;;10.75;10.75;;;;;20.10;60.49;101988.16;5002011;28;46109;-76
2021/08/24 00:55:04;;;;;;;;;7.50;7.50;;;;;20.10;60.45;101983.59;5002100;28;45410;-76
2021/08/24 00:57:30;;;;;;;;;12.75;9.50;;;;;20.02;60.75;101977.72;5000406;28;45422;-76
2021/08/24 00:59:55;;;;;;;;;11.75;9.00;;;;;20.12;60.78;101991.66;5002078;28;45552;-77
2021/08/24 01:02:22;;;;;;;;;8.50;7.50;;;;;19.97;60.68;101969.81;5001576;28;45950;-77
2021/08/24 01:04:50;;;;;;;;;10.75;9.00;;;;;19.99;60.65;101978.72;5000729;28;45425;-76
2021/08/24 01:07:21;;;;;;;;;12.25;11.25;;;;;20.11;60.42;102000.72;5001975;28;45316;-76
2021/08/24 01:09:55;;;;;;;;;11.50;11.50;;;;;20.10;60.87;101990.88;5001940;28;45250;-78
2021/08/24 01:12:47;;;;;;;;;10.25;9.00;;;;;20.08;60.90;101988.22;5001596;28;46494;-77
2021/08/24 01:15:31;;;;;;;;;16.00;13.50;;;;;20.02;61.05;101984.97;5001480;28;45464;-75
2021/08/24 01:18:10;;;;;;;;;15.25;10.25;;;;;19.97;61.27;101974.38;5000414;28;45268;-76
2021/08/24 01:21:13;;;;;;;;;12.50;11.25;;;;;19.98;60.96;101976.13;5001927;28;45257;-76
2021/08/24 01:23:48;;;;;;;;;9.50;9.50;;;;;20.01;60.94;101981.34;5001597;28;46287;-77
2021/08/24 01:26:38;;;;;;;;;14.75;11.75;;;;;19.98;60.82;101973.41;5000366;28;45234;-76
2021/08/24 01:29:17;;;;;;;;;10.00;9.75;;;;;19.94;61.15;101975.38;5001629;28;45390;-77
2021/08/24 01:31:47;;;;;;;;;12.00;12.00;;;;;19.90;61.16;101971.09;5001584;28;45313;-76
2021/08/24 01:34:32;;;;;;;;;17.75;12.75;;;;;19.89;61.39;101971.19;4999791;28;48690;-76
2021/08/24 01:37:03;;;;;;;;;13.00;11.25;;;;;19.82;61.35;101962.50;5001445;28;45558;-76
2021/08/24 01:39:38;;;;;;;;;10.50;10.50;;;;;19.86;61.27;101969.50;5001472;28;45268;-77
2021/08/24 01:42:20;;;;;;;;;16.00;15.00;;;;;19.80;61.38;101959.00;5001034;28;45438;-76
2021/08/24 01:45:08;;;;;;;;;15.25;13.75;;;;;19.82;61.40;101967.91;5001249;28;45335;-76
2021/08/24 01:48:01;;;;;;;;;11.75;10.25;;;;;19.82;61.61;101964.34;5001146;28;45308;-77
2021/08/24 01:50:37;;;;;;;;;14.00;12.00;;;;;19.83;61.67;101964.25;5001360;28;45455;-76
2021/08/24 01:53:05;;;;;;;;;13.75;12.00;;;;;19.82;61.64;101956.22;4999991;28;45566;-76
2021/08/24 01:55:39;;;;;;;;;14.75;13.25;;;;;19.75;61.54;101958.34;5001006;28;45814;-77
2021/08/24 01:58:24;;;;;;;;;16.00;14.75;;;;;19.72;61.76;101948.50;5000830;28;45469;-76
2021/08/24 02:00:53;;;;;;;;;16.00;14.50;;;;;19.77;61.67;101964.56;4999913;28;45301;-77
2021/08/24 02:03:26;;;;;;;;;11.75;9.00;;;;;19.72;61.42;101967.47;5000872;28;45521;-77
2021/08/24 02:06:05;;;;;;;;;15.75;15.50;;;;;19.73;61.91;101971.94;5000965;28;46497;-76
2021/08/24 02:08:34;;;;;;;;;15.50;13.50;;;;;19.66;62.07;101953.38;5000853;28;45311;-76
2021/08/24 02:11:02;;;;;;;;;12.50;12.50;;;;;19.71;61.94;101973.88;5001407;28;45332;-77
2021/08/24 02:13:35;;;;;;;;;16.00;14.25;;;;;19.70;61.82;101966.69;5000367;28;45433;-76
2021/08/24 02:16:04;;;;;;;;;15.00;13.25;;;;;19.67;62.21;101966.84;5000968;28;45343;-77
2021/08/24 02:18:36;;;;;;;;;18.75;16.50;;;;;19.61;62.29;101959.91;5000528;28;45308;-77
2021/08/24 02:21:08;;;;;;;;;13.25;11.00;;;;;19.59;62.24;101969.06;5001043;28;45387;-76
2021/08/24 02:23:34;;;;;;;;;12.75;12.75;;;;;19.57;62.37;101969.13;5000811;28;45447;-77
2021/08/24 02:26:03;;;;;;;;;15.25;13.75;;;;;19.54;62.46;101963.88;5000579;28;46269;-77
2021/08/24 02:28:50;;;;;;;;;13.00;13.00;;;;;19.62;62.20;101975.19;4999767;28;45508;-76
2021/08/24 02:31:58;;;;;;;;;16.75;13.50;;;;;19.64;62.38;101980.53;5000635;28;45468;-76
2021/08/24 02:34:42;;;;;;;;;18.75;17.50;;;;;19.59;62.25;101972.63;4999847;28;45308;-77
2021/08/24 02:37:20;;;;;;;;;18.50;17.00;;;;;19.50;62.43;101959.56;5000460;28;46302;-76
2021/08/24 02:40:30;;;;;;;;;13.25;13.25;;;;;19.58;62.38;101972.72;5000689;28;45334;-77
2021/08/24 02:43:10;;;;;;;;;14.25;14.25;;;;;19.62;62.34;101982.44;5000011;28;45371;-77
2021/08/24 02:45:41;;;;;;;;;16.50;16.00;;;;;19.56;62.42;101963.78;4999177;28;45919;-77
2021/08/24 02:48:11;;;;;;;;;18.75;17.75;;;;;19.58;62.62;101970.91;5000373;28;45971;-77
2021/08/24 02:50:37;;;;;;;;;16.50;15.00;;;;;19.54;62.63;101965.69;5000396;28;45320;-76
2021/08/24 02:53:03;;;;;;;;;17.50;16.25;;;;;19.46;62.83;101955.25;5000504;28;45308;-76
2021/08/24 02:55:29;;;;;;;;;16.00;16.00;;;;;19.54;62.37;101965.69;5000160;28;45299;-76
2021/08/24 02:57:55;;;;;;;;;19.50;19.00;;;;;19.54;63.12;101969.28;4999880;28;46065;-77
2021/08/24 03:00:20;;;;;;;;;22.00;20.50;;;;;19.53;62.71;101975.66;5000193;28;45232;-76
2021/08/24 03:02:46;;;;;;;;;21.00;19.00;;;;;19.52;62.80;101965.78;5000298;28;45410;-76
2021/08/24 03:05:11;;;;;;;;;23.50;23.25;;;;;19.55;62.82;101962.91;5000256;28;45476;-77
2021/08/24 03:07:39;;;;;;;;;22.00;17.25;;;;;19.53;62.78;101967.53;4998973;28;47102;-76
2021/08/24 03:10:09;;;;;;;;;20.50;20.00;;;;;19.50;62.85;101964.13;4999981;28;45237;-77
2021/08/24 03:12:43;;;;;;;;;20.50;18.75;;;;;19.53;62.78;101963.94;4999947;28;45462;-76
2021/08/24 03:15:11;;;;;;;;;22.75;21.75;;;;;19.56;62.87;101967.41;4999916;28;45301;-76
2021/08/24 03:17:59;;;;;;;;;20.00;18.25;;;;;19.51;63.10;101961.34;4999837;28;45463;-76
2021/08/24 03:20:30;;;;;;;;;23.00;20.50;;;;;19.52;62.74;101965.78;5000205;28;45231;-76
2021/08/24 03:22:57;;;;;;;;;29.00;25.75;;;;;19.53;62.92;101964.84;5000039;28;45437;-76
2021/08/24 03:25:24;;;;;;;;;28.50;23.50;;;;;19.45;62.87;101945.38;5000268;28;45241;-76
2021/08/24 03:27:52;;;;;;;;;27.25;24.50;;;;;19.48;63.10;101947.94;4997879;28;50868;-76
2021/08/24 03:30:20;;;;;;;;;25.00;24.00;;;;;19.55;62.94;101957.50;4999855;28;45446;-76
2021/08/24 03:32:46;;;;;;;;;23.75;23.75;;;;;19.54;63.06;101952.16;4999923;28;45337;-76
2021/08/24 03:35:13;;;;;;;;;27.00;25.50;;;;;19.53;63.22;101962.13;4999861;28;45748;-76
2021/08/24 03:37:39;;;;;;;;;23.50;22.25;;;;;19.36;62.98;101924.19;4999717;28;45340;-77
2021/08/24 03:40:07;;;;;;;;;26.75;24.75;;;;;19.50;63.13;101956.88;5001639;28;45264;-76
2021/08/24 03:42:32;;;;;;;;;24.75;22.50;;;;;19.44;63.27;101949.94;5002927;28;45353;-76
2021/08/24 03:44:58;;;;;;;;;25.25;24.50;;;;;19.45;62.89;101950.81;5001932;28;45394;-78
2021/08/24 03:47:23;;;;;;;;;27.50;26.25;;;;;19.48;63.04;101966.00;5002831;28;45296;-76
2021/08/24 03:49:49;;;;;;;;;24.25;23.50;;;;;19.43;63.05;101956.31;5001927;28;45465;-76
2021/08/24 03:52:14;;;;;;;;;29.75;28.50;;;;;19.50;63.18;101969.53;5003018;28;45359;-76
2021/08/24 03:54:39;;;;;;;;;27.75;26.00;;;;;19.34;62.99;101939.63;5003085;28;45371;-76
2021/08/24 03:57:05;;;;;;;;;27.00;22.25;;;;;19.49;63.35;101968.63;5001193;28;46079;-76
2021/08/24 03:59:30;;;;;;;;;32.50;30.75;;;;;19.39;63.27;101948.41;5002939;28;45431;-76
2021/08/24 04:01:56;;;;;;;;;32.00;30.75;;;;;19.47;63.11;101969.69;5003108;28;45279;-76
2021/08/24 04:04:21;;;;;;;;;31.25;28.75;;;;;19.30;62.93;101935.34;5002986;28;45438;-76
2021/08/24 04:06:46;;;;;;;;;28.25;26.00;;;;;19.38;63.29;101952.09;5002522;28;45305;-76
2021/08/24 04:09:12;;;;;;;;;30.25;25.50;;;;;19.46;63.22;101971.50;5002861;28;45255;-76
2021/08/24 04:11:38;;;;;;;;;29.75;26.50;;;;;19.40;63.24;101963.69;5002673;28;45252;-76
2021/08/24 04:14:03;;;;;;;;;29.00;27.75;;;;;19.37;63.11;101972.84;5002825;28;45221;-76
2021/08/24 04:16:28;;;;;;;;;26.50;23.75;;;;;19.35;63.40;101963.94;5002598;28;45321;-76
2021/08/24 04:18:54;;;;;;;;;27.00;24.50;;;;;19.38;63.49;101971.91;5001336;28;45268;-76
2021/08/24 04:21:20;;;;;;;;;35.50;31.25;;;;;19.33;63.26;101960.44;5002732;28;45423;-76
2021/08/24 04:23:47;;;;;;;;;32.50;28.50;;;;;19.38;63.52;101965.63;5002706;28;45147;-76
2021/08/24 04:26:13;;;;;;;;;27.00;25.50;;;;;19.36;63.42;101973.81;5002429;28;45464;-76
2021/08/24 04:28:40;;;;;;;;;33.75;30.00;;;;;19.35;63.77;101972.03;5002259;28;45324;-76
2021/08/24 04:31:08;;;;;;;;;27.75;26.25;;;;;19.40;63.30;101980.81;5002534;28;45460;-77
2021/08/24 04:33:34;;;;;;;;;32.50;29.25;;;;;19.34;63.39;101974.81;5001018;28;45189;-76
2021/08/24 04:36:00;;;;;;;;;27.75;26.50;;;;;19.32;63.38;101974.91;5002286;28;45379;-77
2021/08/24 04:38:27;;;;;;;;;25.75;24.50;;;;;19.38;63.28;101992.69;5002586;28;45209;-76
2021/08/24 04:40:53;;;;;;;;;29.50;29.50;;;;;19.34;63.47;101977.53;5002299;28;45288;-76
2021/08/24 04:43:18;;;;;;;;;34.00;31.00;;;;;19.35;63.42;101984.72;5002020;28;45332;-76
2021/08/24 04:45:44;;;;;;;;;37.75;32.00;;;;;19.24;63.81;101972.59;5000767;28;45918;-76
2021/08/24 04:48:09;;;;;;;;;27.00;26.50;;;;;19.35;63.36;101995.53;5002134;28;45437;-76
2021/08/24 04:50:35;;;;;;;;;32.00;30.25;;;;;19.36;63.50;101987.34;5001877;28;45414;-76
2021/08/24 04:53:02;;;;;;;;;33.00;31.75;;;;;19.32;63.33;101984.88;5000807;28;45319;-76
2021/08/24 04:55:27;;;;;;;;;34.50;33.00;;;;;19.33;63.26;101983.88;5001868;28;45287;-76
2021/08/24 04:57:52;;;;;;;;;29.25;28.00;;;;;19.22;63.67;101974.47;5001691;28;45332;-76
2021/08/24 05:00:18;;;;;;;;;37.25;32.25;;;;;19.30;63.80;101987.66;5002047;28;45217;-76
2021/08/24 05:02:43;;;;;;;;;33.75;29.25;;;;;19.22;63.32;101981.72;5002229;28;45232;-76
2021/08/24 05:05:09;;;;;;;;;33.50;31.50;;;;;19.33;63.47;102001.03;5001792;28;45397;-75
2021/08/24 05:07:34;;;;;;;;;31.25;30.00;;;;;19.25;63.55;101984.28;5001995;28;45734;-76
2021/08/24 05:10:03;;;;;;;;;29.50;29.25;;;;;19.01;63.44;101948.47;5002063;28;45277;-76
2021/08/24 05:12:29;;;;;;;;;32.25;30.00;;;;;19.23;63.77;101978.94;5000297;28;45462;-76
2021/08/24 05:14:55;;;;;;;;;36.00;32.00;;;;;19.23;63.59;101988.91;5001717;28;46535;-75
2021/08/24 05:17:20;;;;;;;;;28.75;27.50;;;;;19.25;63.79;101995.97;5001792;28;45356;-76
2021/08/24 05:19:45;;;;;;;;;29.25;29.00;;;;;19.22;63.38;101988.00;5001884;28;45239;-76
2021/08/24 05:22:10;;;;;;;;;31.00;29.50;;;;;19.21;63.45;101982.66;5001900;28;45590;-76
2021/08/24 05:24:36;;;;;;;;;27.75;27.75;;;;;19.29;63.45;102001.25;5000216;28;47467;-77
2021/08/24 05:27:03;;;;;;;;;28.00;26.50;;;;;19.31;63.48;101999.34;5001437;28;45361;-77
2021/08/24 05:29:29;;;;;;;;;27.50;24.25;;;;;19.32;63.31;102006.53;5001718;28;45426;-77
2021/08/24 05:31:55;;;;;;;;;27.75;27.00;;;;;19.25;63.75;102000.53;5001711;28;45354;-77
2021/08/24 05:34:20;;;;;;;;;33.00;29.00;;;;;19.24;63.49;101993.34;5001060;28;46990;-77
2021/08/24 05:36:45;;;;;;;;;38.00;32.75;;;;;19.25;63.41;102003.25;5000195;28;45341;-76
2021/08/24 05:39:11;;;;;;;;;30.75;30.75;;;;;19.25;63.44;102011.34;5000325;28;45337;-77
2021/08/24 05:41:38;;;;;;;;;28.00;26.00;;;;;19.25;63.70;102014.94;5001493;28;45525;-76
2021/08/24 05:44:04;;;;;;;;;31.75;30.25;;;;;19.20;63.63;102005.28;5001092;28;46981;-76
2021/08/24 05:46:29;;;;;;;;;29.25;25.75;;;;;19.23;63.58;102013.28;5001311;28;45627;-76
2021/08/24 05:48:55;;;;;;;;;30.75;29.25;;;;;19.29;63.81;102017.50;5001171;28;45478;-77
2021/08/24 05:51:23;;;;;;;;;33.50;29.50;;;;;19.28;63.29;102013.91;5001313;28;46485;-77
2021/08/24 05:53:48;;;;;;;;;27.25;25.50;;;;;19.31;63.32;102002.94;4999676;28;46300;-77
2021/08/24 05:56:20;;;;;;;;;29.25;26.25;;;;;19.29;63.46;102001.25;5001054;28;45299;-75
2021/08/24 05:58:45;;;;;;;;;32.75;27.25;;;;;19.24;63.32;102002.38;5001045;28;45321;-77
2021/08/24 06:01:21;;;;;;;;;29.00;26.50;;;;;19.23;63.20;102006.03;4999772;28;45418;-76
2021/08/24 06:03:47;;;;;;;;;35.00;30.50;;;;;19.24;63.21;102010.50;5000218;28;46364;-77
2021/08/24 06:06:27;;;;;;;;;26.75;25.75;;;;;19.22;63.34;102003.38;5000913;28;45219;-77
2021/08/24 06:08:52;;;;;;;;;26.25;24.75;;;;;19.32;63.42;102023.63;4999705;28;45348;-77
2021/08/24 06:11:27;;;;;;;;;27.75;25.25;;;;;19.32;63.54;102022.75;5001087;28;45362;-77
2021/08/24 06:13:54;;;;;;;;;28.25;27.75;;;;;19.33;63.25;102024.50;5000678;28;46695;-77
2021/08/24 06:16:20;;;;;;;;;30.50;28.25;;;;;19.33;63.07;102025.41;5000854;28;45542;-77
2021/08/24 06:18:45;;;;;;;;;28.50;26.25;;;;;19.34;63.38;102031.69;5000912;28;45324;-76
2021/08/24 06:21:11;;;;;;;;;27.50;26.75;;;;;19.34;63.33;102019.00;4999479;28;45392;-77
2021/08/24 06:23:37;;;;;;;;;28.00;26.25;;;;;19.36;63.15;102021.66;5000713;28;46792;-77
2021/08/24 06:26:03;;;;;;;;;27.25;24.25;;;;;19.35;63.17;102026.19;5000798;28;45178;-77
2021/08/24 06:28:29;;;;;;;;;29.50;27.75;;;;;19.26;63.36;102004.97;5000411;28;45369;-77
2021/08/24 06:30:54;;;;;;;;;20.25;19.25;;;;;19.35;62.87;102009.94;5000561;28;45525;-77
2021/08/24 06:33:24;;;;;;;;;28.50;27.50;;;;;19.39;63.26;102013.38;5000376;28;46418;-76
2021/08/24 06:35:49;;;;;;;;;28.75;26.25;;;;;19.40;63.02;102023.28;5000500;28;45335;-76
2021/08/24 06:38:15;;;;;;;;;27.25;24.25;;;;;19.32;63.08;102003.81;5000656;28;45852;-76
2021/08/24 06:40:40;;;;;;;;;27.75;26.50;;;;;19.39;63.14;102016.94;5000433;28;45261;-77
2021/08/24 06:43:05;;;;;;;;;26.00;24.75;;;;;19.34;63.01;102004.59;5000103;28;45323;-77
2021/08/24 06:45:31;;;;;;;;;25.25;25.00;;;;;19.45;62.83;102026.63;5000292;28;45360;-77
2021/08/24 06:47:58;;;;;;;;;32.75;29.25;;;;;19.32;63.13;102009.22;5000602;28;45461;-76
2021/08/24 06:50:25;;;;;;;;;24.25;23.50;;;;;19.38;63.13;102023.34;5000394;28;45196;-76
2021/08/24 06:52:51;;;;;;;;;25.50;23.75;;;;;19.30;62.90;102011.16;4998965;28;48717;-76
2021/08/24 06:55:17;;;;;;;;;21.50;20.75;;;;;19.32;63.05;102011.94;5000138;28;45353;-76
2021/08/24 06:57:44;;;;;;;;;30.25;28.75;;;;;19.40;63.33;102025.97;5000090;28;45534;-77
2021/08/24 07:00:16;;;;;;;;;24.25;24.25;;;;;19.38;63.32;102022.47;5000151;28;45557;-77
2021/08/24 07:02:43;;;;;;;;;24.50;24.25;;;;;19.37;63.41;102031.53;5000220;28;47717;-76
2021/08/24 07:05:09;;;;;;;;;44.00;37.50;;;;;19.40;63.30;102025.97;5000064;28;45375;-76
2021/08/24 07:07:35;;;;;;;;;32.25;30.00;;;;;19.43;63.21;102025.84;5000518;28;45318;-76
2021/08/24 07:10:00;;;;;;;;;26.50;25.50;;;;;19.38;63.41;102023.34;4999979;28;45482;-76
2021/08/24 07:12:25;;;;;;;;;29.00;28.25;;;;;19.36;63.07;102027.06;4998561;28;47669;-77
2021/08/24 07:14:51;;;;;;;;;28.75;27.00;;;;;19.36;62.79;102027.06;4999794;28;45406;-76
2021/08/24 07:17:18;;;;;;;;;27.00;25.50;;;;;19.32;63.49;102020.06;5000019;28;45287;-75
2021/08/24 07:19:44;;;;;;;;;23.50;22.50;;;;;19.32;63.14;102023.63;5000011;28;45244;-76
2021/08/24 07:22:09;;;;;;;;;30.50;28.25;;;;;19.41;63.13;102025.91;4999834;28;45369;-76
2021/08/24 07:24:35;;;;;;;;;28.75;27.75;;;;;19.26;63.15;101999.56;4999869;28;45425;-76
2021/08/24 07:27:00;;;;;;;;;26.25;26.25;;;;;19.33;63.16;102009.16;4999880;28;45421;-76
2021/08/24 07:29:25;;;;;;;;;30.25;29.00;;;;;19.42;63.48;102024.06;4999762;28;45264;-76
2021/08/24 07:31:51;;;;;;;;;23.25;22.50;;;;;19.37;63.59;102008.03;4999813;28;46262;-75
2021/08/24 07:34:16;;;;;;;;;28.75;26.50;;;;;19.44;63.45;102017.63;4998194;28;46057;-77
2021/08/24 07:36:41;;;;;;;;;24.00;23.75;;;;;19.33;62.80;101994.72;5000094;28;45153;-76
2021/08/24 07:39:07;;;;;;;;;27.00;23.50;;;;;19.43;63.20;102005.03;4999981;28;45216;-76
2021/08/24 07:41:33;;;;;;;;;29.00;27.50;;;;;19.57;62.86;102023.28;4999401;28;45323;-76
2021/08/24 07:43:58;;;;;;;;;28.00;26.00;;;;;19.54;62.87;102018.03;4998365;28;45452;-77
2021/08/24 07:46:23;;;;;;;;;27.75;24.75;;;;;19.57;62.98;102020.59;4999866;28;45311;-78
2021/08/24 07:48:49;;;;;;;;;24.75;22.25;;;;;19.53;62.94;102005.47;4999556;28;45572;-76
2021/08/24 07:51:14;;;;;;;;;25.00;25.00;;;;;19.68;62.95;102030.91;4999668;28;46320;-76
2021/08/24 07:53:39;;;;;;;;;34.75;31.75;;;;;19.49;62.53;101986.72;4999474;28;45294;-76
2021/08/24 07:56:09;;;;;;;;;26.00;22.00;;;;;19.67;62.81;102018.31;4999821;28;45759;-76
2021/08/24 07:58:34;;;;;;;;;25.25;24.25;;;;;19.76;62.67;102016.97;4998877;28;45486;-78
2021/08/24 08:00:59;;;;;;;;;23.00;23.00;;;;;19.79;62.63;102023.13;4999436;28;45331;-76
2021/08/24 08:03:25;;;;;;;;;28.25;25.25;;;;;19.80;62.48;102026.72;4999395;28;45292;-76
2021/08/24 08:05:50;;;;;;;;;22.75;20.25;;;;;19.85;62.61;102021.94;4999755;28;45418;-77
2021/08/24 08:08:16;;;;;;;;;25.25;22.75;;;;;19.91;61.99;102021.63;4999313;28;45233;-76
2021/08/24 08:10:41;;;;;;;;;23.00;17.25;;;;;19.91;61.99;102009.91;4999478;28;45420;-76
2021/08/24 08:13:09;;;;;;;;;24.75;22.00;;;;;19.93;62.02;102014.31;4997798;28;45570;-77
2021/08/24 08:15:34;;;;;;;;;22.50;21.00;;;;;20.00;61.96;102020.28;4999521;28;45474;-77
2021/08/24 08:18:08;;;;;;;;;18.25;17.50;;;;;20.02;61.43;102020.19;4998955;28;45296;-77
2021/08/24 08:20:35;;;;;;;;;22.75;21.50;;;;;20.09;61.50;102018.91;4998033;28;48505;-76
2021/08/24 08:23:03;;;;;;;;;22.25;18.50;;;;;20.12;61.39;102016.06;4997683;28;46742;-76
2021/08/24 08:25:29;;;;;;;;;18.50;16.00;;;;;20.15;61.27;102014.06;4998903;28;45237;-77
2021/08/24 08:27:54;;;;;;;;;19.75;16.25;;;;;20.16;61.07;102010.41;5000771;28;46028;-76
2021/08/24 08:30:20;;;;;;;;;20.50;18.00;;;;;20.14;60.92;102001.44;5002638;28;46333;-77
2021/08/24 08:32:45;;;;;;;;;18.00;18.00;;;;;20.24;60.96;102020.81;5002229;28;45268;-76
2021/08/24 08:35:13;;;;;;;;;16.50;15.75;;;;;20.26;60.99;102013.47;5002620;28;45165;-76
2021/08/24 08:37:39;;;;;;;;;17.75;15.75;;;;;20.33;60.89;102025.75;5002341;28;45477;-77
2021/08/24 08:40:07;;;;;;;;;16.75;16.75;;;;;20.38;60.59;102025.53;5002385;28;46180;-77
2021/08/24 08:43:18;;;;;;;;;19.50;17.50;;;;;20.42;60.16;102032.53;5001895;28;45411;-77
2021/08/24 08:45:49;;;;;;;;;15.25;12.25;;;;;20.39;60.32;102020.97;5002417;28;45490;-76
2021/08/24 08:48:46;;;;;;;;;16.00;15.75;;;;;20.46;59.40;102030.53;5002136;28;45295;-76
2021/08/24 08:51:53;;;;;;;;;13.75;13.50;;;;;20.41;59.89;102009.06;5000910;28;47329;-78
2021/08/24 08:54:35;;;;;;;;;15.00;15.00;;;;;20.59;59.30;102033.47;4992939;28;45641;-78
2021/08/24 08:57:12;;;;;;;;;18.75;18.75;;;;;20.60;59.35;102027.94;5001753;28;45321;-77
2021/08/24 08:59:54;;;;;;;;;15.75;14.25;;;;;20.65;59.71;102025.91;5017443;28;45545;-76
2021/08/24 09:02:31;;;;;;;;;14.75;13.50;;;;;20.70;59.17;102021.09;5001620;28;46129;-76
2021/08/24 09:04:59;;;;;;;;;11.50;11.00;;;;;20.64;58.26;102015.13;4984794;28;46066;-79
2021/08/24 09:07:27;;;;;;;;;12.25;12.25;;;;;20.72;58.43;102019.16;5002085;28;45415;-79
2021/08/24 09:09:52;;;;;;;;;9.50;9.50;;;;;20.76;58.48;102014.44;5002037;28;45347;-77
2021/08/24 09:12:19;;;;;;;;;15.25;13.00;;;;;20.80;57.98;102026.00;5001706;28;45336;-77
2021/08/24 09:14:48;;;;;;;;;12.00;10.75;;;;;20.81;58.46;102014.19;5001730;28;45306;-77
2021/08/24 09:17:16;;;;;;;;;9.50;9.50;;;;;20.87;57.69;102022.88;5002071;28;45303;-78
2021/08/24 09:19:51;;;;;;;;;8.75;8.00;;;;;20.89;57.47;102015.50;5001813;28;45438;-78
2021/08/24 09:22:18;;;;;;;;;10.00;9.75;;;;;20.87;57.67;102003.00;5001780;28;45297;-78
2021/08/24 09:24:45;;;;;;;;;12.75;11.00;;;;;20.96;56.96;102012.47;5001368;28;45223;-76
2021/08/24 09:27:33;;;;;;;;;14.00;13.00;;;;;21.04;57.92;102008.34;5001567;28;45182;-79
2021/08/24 09:29:59;;;;;;;;;12.00;11.00;;;;;21.12;57.26;102012.44;4994058;28;45609;-77
2021/08/24 09:32:26;;;;;;;;;8.25;8.25;;;;;21.18;56.96;102017.53;5001380;28;46156;-78
2021/08/24 09:35:20;;;;;;;;;8.00;8.00;;;;;21.23;56.70;102015.44;5001246;28;45328;-77
2021/08/24 09:37:46;;;;;;;;;7.50;7.00;;;;;21.29;55.66;102018.69;5000345;28;45426;-78
2021/08/24 09:40:13;;;;;;;;;11.00;10.00;;;;;21.33;56.25;102011.22;5001834;28;45310;-78
2021/08/24 09:42:44;;;;;;;;;8.75;8.75;;;;;21.37;55.88;102010.09;5000961;28;47141;-78
2021/08/24 09:45:18;;;;;;;;;9.75;8.75;;;;;21.40;56.03;102000.88;5001664;28;45516;-78
2021/08/24 09:47:57;;;;;;;;;6.25;6.25;;;;;21.40;55.11;101987.31;5001345;28;45315;-78
2021/08/24 09:50:30;;;;;;;;;5.50;5.50;;;;;21.48;55.03;101995.06;5001490;28;45229;-77
2021/08/24 09:52:55;;;;;;;;;9.50;9.50;;;;;21.53;54.38;101988.38;5001523;28;46760;-79
2021/08/24 09:55:27;;;;;;;;;7.25;7.25;;;;;21.56;54.50;101992.75;5001247;28;45461;-79
2021/08/24 14:42:41;;;;;;;;;4.00;4.00;;;;;22.37;42.74;101851.84;5148350;27;45472;-74
2021/08/24 14:45:10;;;;;;;;;6.25;5.00;;;;;22.58;42.78;101868.59;5138199;27;45693;-68
2021/08/24 14:47:46;;;;;;;;;3.00;3.00;;;;;22.71;41.62;101867.81;5138924;27;45396;-73
2021/08/24 14:50:12;;;;;;;;;3.00;3.00;;;;;22.77;41.53;101861.97;5148777;27;45322;-72
2021/08/24 14:52:56;;;;;;;;;4.25;4.00;;;;;22.90;42.10;101862.00;5129240;27;45284;-66
2021/08/24 14:55:28;;;;;;;;;4.25;4.25;;;;;22.97;42.19;101857.91;5138365;27;45370;-66
2021/08/24 14:57:56;;;;;;;;;3.50;3.50;;;;;23.09;41.57;101861.69;5146499;27;45289;-66
2021/08/24 15:00:24;;;;;;;;;2.00;2.00;;;;;23.18;41.25;101846.56;5138494;27;45238;-67
2021/08/24 15:02:53;;;;;;;;;4.25;3.00;;;;;23.26;40.83;101857.81;5137991;27;46162;-66
2021/08/24 15:05:29;;;;;;;;;3.00;3.00;;;;;23.29;41.16;101853.03;5138418;27;45332;-65
2021/08/24 15:08:06;;;;;;;;;3.00;3.00;;;;;23.38;40.50;101861.53;5132373;27;45504;-64
2021/08/24 15:10:35;;;;;;;;;2.00;2.00;;;;;23.41;40.60;101853.16;5138297;27;45421;-64
2021/08/24 15:13:02;;;;;;;;;4.50;4.50;;;;;23.41;40.36;101855.88;5138029;27;45332;-64
2021/08/24 15:15:33;;;;;;;;;4.25;3.75;;;;;23.43;39.89;101851.19;5139200;27;45453;-74
2021/08/24 15:18:01;;;;;;;;;4.00;4.00;;;;;23.38;40.00;101839.75;5137836;27;45224;-75
2021/08/24 15:20:29;;;;;;;;;3.75;3.75;;;;;23.45;40.02;101846.50;5138137;27;45597;-71
2021/08/24 15:23:14;;;;;;;;;4.00;3.25;;;;;23.43;40.09;101834.84;5137747;27;46073;-73
2021/08/24 15:25:40;;;;;;;;;3.00;3.00;;;;;23.46;40.33;101846.41;5137950;27;45614;-75
2021/08/24 15:28:14;;;;;;;;;6.00;5.00;;;;;23.51;40.09;101848.81;5138049;27;45474;-75
2021/08/24 15:30:39;;;;;;;;;5.50;5.00;;;;;23.52;40.14;101841.50;5137634;27;46066;-72
2021/08/24 15:33:34;;;;;;;;;3.00;2.00;;;;;23.54;39.84;101843.16;5137624;27;45306;-73
2021/08/24 15:36:00;;;;;;;;;2.25;2.25;;;;;23.50;39.54;101830.72;5157606;27;46182;-81
2021/08/24 15:38:25;;;;;;;;;3.00;3.00;;;;;23.49;39.79;101834.44;5140110;27;45302;-77
2021/08/24 15:40:50;;;;;;;;;4.75;4.00;;;;;23.54;39.57;101824.09;5136508;27;45554;-78
2021/08/24 15:43:33;;;;;;;;;3.00;3.00;;;;;23.56;39.60;101827.56;5143834;27;46479;-82
2021/08/24 15:45:58;;;;;;;;;3.50;3.00;;;;;23.57;38.78;101820.25;5110879;27;45408;-79
2021/08/24 15:48:27;;;;;;;;;7.00;3.25;;;;;23.56;39.47;101816.66;5124011;27;45311;-80
2021/08/24 15:50:54;;;;;;;;;3.00;3.00;;;;;23.62;38.93;101816.25;5123724;27;45428;-79
2021/08/24 15:53:20;;;;;;;;;1.00;1.00;;;;;23.61;39.12;101800.00;5123501;27;46336;-77
2021/08/24 15:55:55;;;;;;;;;3.50;3.50;;;;;23.57;38.85;101809.34;5123754;27;45256;-78
2021/08/24 15:58:21;;;;;;;;;2.25;2.25;;;;;23.57;38.76;101812.06;5123827;27;45303;-77
2021/08/24 16:00:47;;;;;;;;;4.00;3.00;;;;;23.53;38.49;101808.69;5122488;27;45562;-78
2021/08/24 16:03:14;;;;;;;;;1.25;1.25;;;;;23.61;38.19;101817.22;5123062;27;45445;-79
2021/08/24 16:05:40;;;;;;;;;2.00;1.25;;;;;23.61;37.81;101806.31;5123656;27;45429;-79
2021/08/24 16:08:06;;;;;;;;;3.00;3.00;;;;;23.60;38.01;101812.72;5123301;27;45322;-74
2021/08/24 16:10:36;;;;;;;;;2.00;2.00;;;;;23.57;38.28;101799.34;5123525;27;45309;-71